Terminal Aerodrome Forecast
Issued by NWS

Home | Current Version | Previous Version | Text Only | Print | Product List | Glossary On
Versions: 1 2 3 4 5 6 7 8 9 10 11 12 13 14 15 16 17 18 19 20 21 22 23 24 25 26 27 28 29 30 31 32
000
FTUS45 KGJT 240117 AAA
TAFDRO
TAF AMD
KDRO 240117Z 2401/2424 36010KT P6SM SCT100 BKN200
     FM240200 05008KT P6SM SCT100 BKN200
     FM240500 09006KT P6SM SCT100 BKN200
     FM241200 VRB03KT P6SM SCT110 BKN200
     FM241800 10005KT P6SM SCT090 BKN150
     FM242100 23008KT P6SM VCTS BKN090CB OVC120=

USA.gov is the U.S. government's official web portal to all federal, state and local government web resources and services.